Granby, CO (80446)

5:33 PM MST en Marzo 02, 2015 (GMT -0700)
Granby Ranch | Change Station
CLOSE
Current Station
Estación meteorológica personal
Location: Granby, CO
Altura: 8360 ft
Estaciones meteorológicas cercanas

Alt 8360 ft 40.05 °N, 105.91 °W | Updated 3 minutes ago

Nublado
Nublado
35.9 ° F
Sensación térmica 36 ° F
N
0.0
Viento Variable Viento desde Norte
Gusts 1.0 mph

Hoy
Alta -- | Baja -- ° F
--% Posibilidad de precipitaciones
Ayer
Alta -- | Baja -- ° F
Precip. -- pul
6:35 AM 5:56 PM
Gibosa creciente, 93% visible
Presión 29.62 pul
Visibilidad 10.0 Millas
Nubes Nubes dispersas 3500 ft
Muy nublado 4800 ft
Nublado 5500 ft
Vientos helados 36 ° F
Punto de rocío 29 ° F
Humedad 76%
Precipitaciones 0.15 pul
Espesor de la nieve No disponible.
UV 0 de una escala de 12
Polen 2.80 de una escala de 12
Calidad del aire No disponible.
Flu Activity No disponible.
METAR K20V 030015Z AUTO 26010KT 10SM SCT035 BKN048 OVC055 05/M01 A2962 RMK AO2

More Conditions Fewer Conditions

Presión 29.62 pul
Visibilidad 10.0 Millas
Nubes Nubes dispersas 3500 ft
Muy nublado 4800 ft
Nublado 5500 ft
Vientos helados 36 ° F
Punto de rocío 29 ° F
Humedad 76%
Precipitaciones 0.15 pul
Espesor de la nieve No disponible.
UV 0 de una escala de 12
Polen 2.80 de una escala de 12
Calidad del aire No disponible.
Flu Activity No disponible.
METAR K20V 030015Z AUTO 26010KT 10SM SCT035 BKN048 OVC055 05/M01 A2962 RMK AO2

More Conditions Fewer Conditions

10-Day Weather Forecast

Almanac

Astronomía

Mar. 02, 2015 Salida Puesta
Hora real
Crepúsculo civil
Crepúsculo náutico
Crepúsculo astronómico
Luna
Horas de luz
Horas de luz
Tomorrow will be .
, % of the Moon is Illuminated

Extremos de hoy

Máximos del estado Bajos del estado

Community

WunderPhotos

Upload Photos

1,802,006 ¡fotos cargadas!

WunderBlogs® & News

Nearby

Calidad del aire

  Calidad del aire Índice AQ Contaminante
Not available.

Grosos de nieve

Estación Profundido Altura

Actividad de terremotos

Ciudad Distance Mag. Tiempo y dato
Magnitud mínima muestra es 2,5.

Temperaturas de aguas costeras

Lugar Temperatura

Estaciones meteorológicas cercanas